Time;durP1;ratioP1;P1;durP2;ratioP2;P2;SDS_P1;SDS_P2;PMS_P1;PMS_P2;Temp;Humidity;BMP_temperature;BMP_pressure;BME280_temperature;BME280_humidity;BME280_pressure;Samples;Min_cycle;Max_cycle;Signal;HPM_P1;HPM_P2
2022/01/14 00:00:05;;;;;;;18.13;8.55;;;-0.30;99.90;;;;;;5026766;28;20040;-77
2022/01/14 00:02:31;;;;;;;19.77;9.60;;;-0.30;99.90;;;;;;5028756;28;20040;-77
2022/01/14 00:04:57;;;;;;;19.83;9.23;;;-0.50;99.90;;;;;;5030630;28;20025;-78
2022/01/14 00:07:25;;;;;;;19.23;8.63;;;-0.30;99.90;;;;;;5030418;28;20033;-77
2022/01/14 00:09:50;;;;;;;21.90;9.43;;;-0.30;99.90;;;;;;5033132;28;20126;-78
2022/01/14 00:12:23;;;;;;;17.25;8.13;;;-0.50;99.90;;;;;;5032757;28;20104;-78
2022/01/14 00:15:11;;;;;;;19.63;8.23;;;-0.30;99.90;;;;;;5031507;28;20316;-78
2022/01/14 00:17:37;;;;;;;18.10;8.95;;;-0.50;99.90;;;;;;5031896;28;20033;-77
2022/01/14 00:20:03;;;;;;;17.27;8.95;;;-0.50;99.90;;;;;;5031563;28;20098;-78
2022/01/14 00:22:30;;;;;;;17.98;8.13;;;-0.50;99.90;;;;;;5032101;28;20034;-78
2022/01/14 00:33:16;;;;;;;23.05;9.68;;;-0.20;99.90;;;;;;5031747;28;20095;-77
2022/01/14 00:35:41;;;;;;;18.38;8.77;;;-0.40;99.90;;;;;;5027192;28;20033;-78
2022/01/14 00:38:11;;;;;;;17.10;7.88;;;-0.40;99.90;;;;;;5031567;28;20029;-78
2022/01/14 00:40:37;;;;;;;16.95;8.40;;;-0.40;99.90;;;;;;5031759;28;20080;-78
2022/01/14 00:43:04;;;;;;;16.73;7.65;;;-0.30;99.90;;;;;;5030575;28;20518;-77
2022/01/14 00:45:30;;;;;;;17.08;8.40;;;-0.30;99.90;;;;;;5031326;28;20037;-78
2022/01/14 00:47:56;;;;;;;17.38;7.85;;;-0.20;99.90;;;;;;5031581;28;20027;-77
2022/01/14 00:50:22;;;;;;;16.75;7.82;;;-0.10;99.90;;;;;;5029599;28;20029;-78
2022/01/14 00:52:48;;;;;;;15.82;7.38;;;-0.20;99.90;;;;;;5029942;28;20028;-78
2022/01/14 00:55:18;;;;;;;14.38;6.82;;;-0.30;99.90;;;;;;5031205;28;20026;-78
2022/01/14 01:00:29;;;;;;;13.07;6.15;;;-0.20;99.90;;;;;;5032325;28;20041;-78
2022/01/14 01:02:55;;;;;;;15.60;7.32;;;-0.30;99.90;;;;;;5030491;28;20535;-77
2022/01/14 01:05:21;;;;;;;17.27;8.13;;;-0.30;99.90;;;;;;5030862;28;20093;-78
2022/01/14 01:08:02;;;;;;;16.40;7.72;;;-0.30;99.90;;;;;;5029700;28;20037;-77
2022/01/14 01:10:28;;;;;;;;;;;-0.20;99.90;;;;;;5023996;28;20487;-78
2022/01/14 01:13:01;;;;;;;14.32;6.65;;;-0.40;99.90;;;;;;5031583;28;19912;-78
2022/01/14 01:15:26;;;;;;;13.00;6.95;;;-0.50;99.90;;;;;;5030694;28;20017;-78
2022/01/14 01:17:52;;;;;;;12.30;6.38;;;-0.40;99.90;;;;;;5029178;28;20044;-78
2022/01/14 01:20:18;;;;;;;13.95;6.40;;;-0.40;99.90;;;;;;5030797;28;20025;-78
2022/01/14 01:22:48;;;;;;;12.90;6.32;;;-0.30;99.90;;;;;;5029571;28;20546;-78
2022/01/14 01:25:17;;;;;;;11.85;6.45;;;-0.40;99.90;;;;;;5030776;28;20029;-78
2022/01/14 01:27:45;;;;;;;11.73;6.00;;;-0.50;99.90;;;;;;5032288;28;20064;-78
2022/01/14 01:33:00;;;;;;;13.20;7.30;;;-0.70;99.90;;;;;;4988435;28;20038;-79
2022/01/14 01:35:26;;;;;;;11.77;6.05;;;-0.90;99.90;;;;;;4988726;28;20034;-78
2022/01/14 01:37:52;;;;;;;13.65;5.95;;;-0.90;99.90;;;;;;4988817;28;20046;-78
2022/01/14 01:40:20;;;;;;;10.52;5.97;;;-0.70;99.90;;;;;;4988834;28;20050;-78
2022/01/14 01:42:47;;;;;;;11.85;6.47;;;-0.60;99.90;;;;;;4986125;28;20027;-79
2022/01/14 01:45:20;;;;;;;12.13;6.53;;;-0.80;99.90;;;;;;4988277;28;20043;-78
2022/01/14 01:47:50;;;;;;;10.68;5.32;;;-0.70;99.90;;;;;;4972124;28;20038;-78
2022/01/14 01:50:18;;;;;;;13.85;6.10;;;-0.50;99.90;;;;;;4971700;28;20030;-79
2022/01/14 01:52:45;;;;;;;13.20;6.05;;;-0.70;99.90;;;;;;4972312;28;20610;-78
2022/01/14 01:55:12;;;;;;;13.52;6.13;;;-0.80;99.90;;;;;;4987641;28;20026;-79
2022/01/14 01:57:38;;;;;;;15.23;6.68;;;-0.70;99.90;;;;;;4990315;28;20042;-78
2022/01/14 02:00:07;;;;;;;13.43;6.90;;;-0.70;99.90;;;;;;4988118;28;20034;-79
2022/01/14 02:02:36;;;;;;;14.60;6.68;;;-0.70;99.90;;;;;;4971807;28;20134;-78
2022/01/14 02:05:04;;;;;;;12.45;6.05;;;-0.60;99.90;;;;;;4988374;28;20034;-79
2022/01/14 02:07:34;;;;;;;11.45;5.70;;;-0.60;99.90;;;;;;4987185;28;20038;-79
2022/01/14 02:10:00;;;;;;;10.23;5.40;;;-0.60;99.90;;;;;;5005737;28;20187;-79
2022/01/14 02:12:34;;;;;;;12.80;6.47;;;-0.70;99.90;;;;;;5030111;28;20566;-79
2022/01/14 02:15:26;;;;;;;10.15;5.50;;;-0.50;99.90;;;;;;5028891;28;20024;-79
2022/01/14 02:23:05;;;;;;;12.15;6.22;;;-0.70;99.90;;;;;;5019934;28;20040;-79
2022/01/14 02:25:32;;;;;;;12.25;6.35;;;-0.70;99.90;;;;;;5029362;28;20107;-79
2022/01/14 02:28:01;;;;;;;14.82;6.53;;;-0.60;99.90;;;;;;5030076;28;20022;-79
2022/01/14 02:30:28;;;;;;;12.50;6.28;;;-0.60;99.90;;;;;;5030589;28;20024;-79
2022/01/14 02:32:54;;;;;;;12.50;5.88;;;-0.90;99.90;;;;;;5029433;28;20106;-79
2022/01/14 02:35:20;;;;;;;13.90;6.22;;;-0.90;99.90;;;;;;5027860;28;20014;-79
2022/01/14 02:37:46;;;;;;;16.20;7.15;;;-0.90;99.90;;;;;;5029199;28;20041;-79
2022/01/14 02:40:13;;;;;;;13.48;6.40;;;-0.70;99.90;;;;;;5029183;28;20061;-79
2022/01/14 02:42:39;;;;;;;14.45;5.90;;;-0.70;99.90;;;;;;5031636;28;20030;-79
2022/01/14 02:45:07;;;;;;;13.40;6.53;;;-0.80;99.90;;;;;;5029814;28;20061;-79
2022/01/14 02:47:33;;;;;;;14.60;6.95;;;-0.70;99.90;;;;;;5027396;28;20225;-79
2022/01/14 02:50:00;;;;;;;11.60;5.88;;;-0.80;99.90;;;;;;5029174;28;20025;-79
2022/01/14 02:52:41;;;;;;;15.82;6.50;;;-0.80;99.90;;;;;;5028270;28;20029;-79
2022/01/14 02:55:20;;;;;;;13.05;6.75;;;-0.80;99.90;;;;;;5028705;28;20020;-79
2022/01/14 02:57:52;;;;;;;12.18;5.43;;;-0.90;99.90;;;;;;5029400;28;20057;-78
2022/01/14 03:00:21;;;;;;;9.15;5.00;;;-1.00;99.90;;;;;;5029573;28;20104;-78
2022/01/14 03:02:48;;;;;;;11.15;5.38;;;-0.90;99.90;;;;;;5028794;28;20030;-79
2022/01/14 03:05:19;;;;;;;12.63;6.30;;;-0.80;99.90;;;;;;5019448;28;20021;-79
2022/01/14 03:07:45;;;;;;;12.57;5.82;;;-0.80;99.90;;;;;;5028711;28;20051;-79
2022/01/14 03:10:13;;;;;;;11.55;6.13;;;-1.10;99.90;;;;;;5028576;28;20063;-79
2022/01/14 03:12:40;;;;;;;10.50;5.75;;;-0.80;99.90;;;;;;5029323;28;20487;-79
2022/01/14 03:15:06;;;;;;;12.20;5.72;;;-0.70;99.90;;;;;;5027294;28;20029;-79
2022/01/14 03:17:32;;;;;;;12.48;6.43;;;-0.80;99.90;;;;;;5026522;28;20506;-79
2022/01/14 03:20:00;;;;;;;11.07;6.32;;;-1.30;99.90;;;;;;5028820;28;20029;-79
2022/01/14 03:22:35;;;;;;;11.70;5.70;;;-1.20;99.90;;;;;;5026981;28;20067;-79
2022/01/14 03:27:46;;;;;;;11.88;6.35;;;-0.90;99.90;;;;;;5030489;28;20056;-79
2022/01/14 03:30:13;;;;;;;14.77;6.43;;;-1.00;99.90;;;;;;5028100;28;20017;-78
2022/01/14 03:32:43;;;;;;;12.48;6.20;;;-1.10;99.90;;;;;;5028504;28;20060;-78
2022/01/14 03:35:10;;;;;;;12.38;6.47;;;-1.20;99.90;;;;;;5028006;28;20028;-79
2022/01/14 03:37:35;;;;;;;11.55;5.78;;;-1.00;99.90;;;;;;5027890;28;20030;-79
2022/01/14 03:40:03;;;;;;;13.43;6.10;;;-0.90;99.90;;;;;;5028786;28;20056;-79
2022/01/14 03:42:28;;;;;;;10.95;5.50;;;-1.20;99.90;;;;;;5030078;28;20057;-79
2022/01/14 03:44:54;;;;;;;15.10;6.75;;;-1.20;99.90;;;;;;5026276;28;20060;-78
2022/01/14 03:47:20;;;;;;;15.10;7.05;;;-1.30;99.90;;;;;;5027764;28;20029;-78
2022/01/14 03:49:46;;;;;;;15.07;6.82;;;-1.20;99.90;;;;;;5028183;28;20392;-79
2022/01/14 03:52:11;;;;;;;9.40;5.40;;;-1.20;99.90;;;;;;5026441;28;20781;-78
2022/01/14 03:54:37;;;;;;;13.35;5.88;;;-1.30;99.90;;;;;;5030072;28;20097;-79
2022/01/14 03:57:03;;;;;;;12.60;5.82;;;-1.20;99.90;;;;;;5026682;28;20053;-79
2022/01/14 03:59:29;;;;;;;13.90;6.65;;;-1.10;99.90;;;;;;5027973;28;20025;-78
2022/01/14 04:01:54;;;;;;;10.00;5.82;;;-1.10;99.90;;;;;;5027763;28;20406;-79
2022/01/14 04:04:20;;;;;;;11.77;6.28;;;-1.20;99.90;;;;;;5028108;28;20486;-78
2022/01/14 04:06:46;;;;;;;11.68;6.25;;;-1.30;99.90;;;;;;5028790;28;20487;-78
2022/01/14 04:09:11;;;;;;;10.75;6.03;;;-1.40;99.90;;;;;;5028292;28;20025;-78
2022/01/14 04:11:38;;;;;;;12.02;6.15;;;-1.40;99.90;;;;;;5027861;28;20108;-78
2022/01/14 04:15:36;;;;;;;13.57;6.22;;;-1.50;99.90;;;;;;5027417;28;20052;-78
2022/01/14 04:16:53;;;;;;;12.30;6.03;;;-1.40;99.90;;;;;;5016707;28;20035;-78
2022/01/14 04:19:19;;;;;;;10.55;5.80;;;-1.40;99.90;;;;;;5027209;28;20022;-78
2022/01/14 04:21:45;;;;;;;12.10;6.18;;;-1.40;99.90;;;;;;5030400;28;20030;-78
2022/01/14 04:24:11;;;;;;;14.90;6.60;;;-1.20;99.90;;;;;;5027601;28;20078;-79
2022/01/14 04:26:37;;;;;;;11.70;5.93;;;-1.40;99.90;;;;;;5027910;28;20065;-78
2022/01/14 04:29:03;;;;;;;12.65;5.95;;;-1.30;99.90;;;;;;5027013;28;20053;-78
2022/01/14 04:31:29;;;;;;;12.77;5.90;;;-1.40;99.90;;;;;;5028380;28;20033;-79
2022/01/14 04:33:55;;;;;;;14.68;6.60;;;-1.50;99.90;;;;;;5028062;28;20030;-79
2022/01/14 04:36:20;;;;;;;15.13;6.55;;;-1.40;99.90;;;;;;5028357;28;20467;-79
2022/01/14 04:38:46;;;;;;;14.18;7.63;;;-1.60;99.90;;;;;;5027313;28;20040;-78
2022/01/14 04:41:12;;;;;;;13.52;6.72;;;-1.70;99.90;;;;;;5026301;28;20033;-78
2022/01/14 04:43:39;;;;;;;13.35;7.03;;;-2.00;99.90;;;;;;5027526;28;20028;-78
2022/01/14 04:48:33;;;;;;;12.13;5.70;;;-1.50;99.90;;;;;;5030443;28;20479;-78
2022/01/14 04:51:01;;;;;;;11.18;5.25;;;-1.40;99.90;;;;;;5030111;28;20479;-78
2022/01/14 04:53:27;;;;;;;12.07;5.63;;;-1.50;99.90;;;;;;5030873;28;20025;-78
2022/01/14 04:55:54;;;;;;;10.05;5.13;;;-1.40;99.90;;;;;;5029872;28;20029;-79
2022/01/14 04:58:20;;;;;;;10.05;5.07;;;-1.40;99.90;;;;;;5029646;28;20526;-78
2022/01/14 05:00:46;;;;;;;12.85;6.38;;;-1.50;99.90;;;;;;5032079;28;20104;-79
2022/01/14 05:03:12;;;;;;;11.27;5.35;;;-1.70;99.90;;;;;;5029503;28;20026;-78
2022/01/14 05:05:41;;;;;;;9.82;4.82;;;-1.90;99.90;;;;;;5030749;28;20033;-79
2022/01/14 05:08:11;;;;;;;11.77;5.57;;;-1.90;99.90;;;;;;5030729;28;20017;-78
2022/01/14 05:10:59;;;;;;;12.07;5.72;;;-1.70;99.90;;;;;;5029639;28;20060;-78
2022/01/14 05:13:24;;;;;;;13.63;6.45;;;-1.60;99.90;;;;;;5030983;28;20063;-78
2022/01/14 05:15:54;;;;;;;11.43;5.85;;;-1.70;99.90;;;;;;5031847;28;20025;-78
2022/01/14 05:18:20;;;;;;;10.45;5.32;;;-1.50;99.90;;;;;;5031364;28;20029;-79
2022/01/14 05:20:46;;;;;;;10.77;6.13;;;-1.50;99.90;;;;;;5031012;28;20400;-79
2022/01/14 05:23:11;;;;;;;11.73;5.75;;;-1.30;99.90;;;;;;5028983;28;20071;-79
2022/01/14 05:25:37;;;;;;;10.85;5.05;;;-1.50;99.90;;;;;;5029599;28;20311;-78
2022/01/14 05:28:03;;;;;;;8.98;4.82;;;-1.60;99.90;;;;;;5030574;28;20510;-79
2022/01/14 05:30:29;;;;;;;11.68;5.85;;;-1.70;99.90;;;;;;5032740;28;20021;-78
2022/01/14 05:32:56;;;;;;;10.48;5.40;;;-1.40;99.90;;;;;;5029070;28;20446;-79
2022/01/14 05:35:24;;;;;;;11.05;5.03;;;-1.30;99.90;;;;;;5029692;28;20033;-78
2022/01/14 05:37:51;;;;;;;9.20;4.95;;;-1.30;99.90;;;;;;5030183;28;20040;-79
2022/01/14 05:40:18;;;;;;;8.15;4.97;;;-1.30;99.90;;;;;;5030280;28;20045;-78
2022/01/14 05:42:44;;;;;;;11.35;5.10;;;-1.00;99.90;;;;;;5030827;28;20094;-79
2022/01/14 05:45:12;;;;;;;9.45;4.68;;;-1.10;99.90;;;;;;5030459;28;20502;-78
2022/01/14 05:47:39;;;;;;;10.43;5.28;;;-1.20;99.90;;;;;;5029933;28;20033;-78
2022/01/14 05:50:11;;;;;;;10.07;4.93;;;-1.50;99.90;;;;;;5030067;28;20033;-78
2022/01/14 05:52:37;;;;;;;9.05;5.18;;;-1.50;99.90;;;;;;5029460;28;20025;-79
2022/01/14 05:55:04;;;;;;;8.77;4.53;;;-1.60;99.90;;;;;;5030136;28;20207;-78
2022/01/14 05:57:30;;;;;;;9.70;5.15;;;-1.40;99.90;;;;;;5029933;28;20014;-78
2022/01/14 05:59:56;;;;;;;9.32;4.85;;;-1.40;99.90;;;;;;5030059;28;20033;-79
2022/01/14 06:02:22;;;;;;;12.52;6.32;;;-1.80;99.90;;;;;;5029429;28;20033;-79
2022/01/14 06:04:47;;;;;;;8.65;5.28;;;-1.80;99.90;;;;;;5029775;28;20037;-78
2022/01/14 06:07:13;;;;;;;11.00;6.00;;;-2.00;99.90;;;;;;5029763;28;20471;-78
2022/01/14 06:09:39;;;;;;;10.80;5.65;;;-2.10;99.90;;;;;;5031731;28;20487;-78
2022/01/14 06:12:05;;;;;;;9.75;5.28;;;-2.00;99.90;;;;;;5027423;28;20022;-78
2022/01/14 06:14:31;;;;;;;11.23;6.15;;;-2.00;99.90;;;;;;5028087;28;20026;-78
2022/01/14 06:16:58;;;;;;;9.57;5.82;;;-1.70;99.90;;;;;;5027698;28;20030;-78
2022/01/14 06:19:27;;;;;;;10.65;5.85;;;-1.60;99.90;;;;;;5030125;28;20040;-78
2022/01/14 06:21:53;;;;;;;11.55;5.85;;;-1.80;99.90;;;;;;5030138;28;20028;-78
2022/01/14 06:24:19;;;;;;;13.52;6.32;;;-1.80;99.90;;;;;;5029052;28;20029;-78
2022/01/14 06:26:44;;;;;;;11.45;6.15;;;-1.80;99.90;;;;;;5029440;28;20034;-78
2022/01/14 06:29:10;;;;;;;11.48;6.10;;;-2.10;99.90;;;;;;5029185;28;20471;-78
2022/01/14 06:31:36;;;;;;;10.77;6.05;;;-1.90;99.90;;;;;;5029692;28;20028;-78
2022/01/14 06:34:02;;;;;;;10.32;5.97;;;-1.80;99.90;;;;;;5030455;28;20029;-77
2022/01/14 06:36:27;;;;;;;11.63;5.28;;;-1.90;99.90;;;;;;5031010;28;20052;-77
2022/01/14 06:38:53;;;;;;;11.18;6.28;;;-1.80;99.90;;;;;;5028764;28;20021;-77
2022/01/14 06:41:19;;;;;;;9.45;4.68;;;-2.00;99.90;;;;;;5027781;28;20052;-77
2022/01/14 06:43:44;;;;;;;11.02;5.45;;;-1.90;99.90;;;;;;5029344;28;20295;-77
2022/01/14 06:46:10;;;;;;;10.85;5.20;;;-1.90;99.90;;;;;;5029174;28;20166;-77
2022/01/14 06:48:36;;;;;;;10.65;5.35;;;-1.90;99.90;;;;;;5030113;28;20021;-77
2022/01/14 06:51:01;;;;;;;10.55;5.50;;;-2.00;99.90;;;;;;5028855;28;20038;-77
2022/01/14 06:53:27;;;;;;;7.88;4.40;;;-1.90;99.90;;;;;;5027546;28;20078;-76
2022/01/14 06:55:53;;;;;;;9.02;4.75;;;-2.10;99.90;;;;;;5027330;28;20128;-76
2022/01/14 06:58:19;;;;;;;9.35;5.05;;;-1.80;99.90;;;;;;5029143;28;20036;-76
2022/01/14 07:00:44;;;;;;;11.02;5.75;;;-1.60;99.90;;;;;;5030623;28;20170;-76
2022/01/14 07:03:10;;;;;;;10.10;5.32;;;-1.80;99.90;;;;;;5027470;28;20029;-76
2022/01/14 07:05:36;;;;;;;11.07;5.68;;;-1.70;99.90;;;;;;5027988;28;20042;-76
2022/01/14 07:08:01;;;;;;;7.60;4.03;;;-1.90;99.90;;;;;;5027798;28;20029;-76
2022/01/14 07:10:27;;;;;;;10.75;5.63;;;-2.10;99.90;;;;;;5027908;28;20034;-75
2022/01/14 07:12:53;;;;;;;9.20;5.32;;;-1.90;99.90;;;;;;5028173;28;20152;-76
2022/01/14 07:15:21;;;;;;;13.30;6.35;;;-1.80;99.90;;;;;;5022495;28;20430;-75
2022/01/14 07:17:46;;;;;;;11.60;5.75;;;-2.00;99.90;;;;;;5028244;28;20033;-75
2022/01/14 07:20:14;;;;;;;11.50;5.60;;;-2.10;99.90;;;;;;5027293;28;20039;-75
2022/01/14 07:22:41;;;;;;;12.23;5.68;;;-2.00;99.90;;;;;;5028455;28;20036;-75
2022/01/14 07:25:07;;;;;;;12.05;6.28;;;-2.20;99.90;;;;;;5028677;28;20057;-75
2022/01/14 07:27:33;;;;;;;10.18;6.05;;;-2.00;99.90;;;;;;5030704;28;20612;-75
2022/01/14 07:29:59;;;;;;;10.98;6.07;;;-2.00;99.90;;;;;;5028667;28;20025;-74
2022/01/14 07:32:24;;;;;;;11.00;6.13;;;-2.10;99.90;;;;;;5027848;28;20129;-74
2022/01/14 07:34:50;;;;;;;44.75;6.95;;;-2.00;99.90;;;;;;5028539;28;20037;-75
2022/01/14 07:37:18;;;;;;;11.70;5.93;;;-1.90;99.90;;;;;;5027165;28;20109;-74
2022/01/14 07:39:44;;;;;;;12.35;6.25;;;-2.00;99.90;;;;;;5029974;28;20047;-74
2022/01/14 07:42:10;;;;;;;11.25;6.15;;;-1.90;99.90;;;;;;5028013;28;20036;-74
2022/01/14 07:44:36;;;;;;;11.23;6.85;;;-2.10;99.90;;;;;;5026879;28;20025;-74
2022/01/14 07:47:02;;;;;;;11.73;6.55;;;-2.00;99.90;;;;;;5022536;28;20034;-74
2022/01/14 07:49:28;;;;;;;12.35;6.60;;;-1.80;99.90;;;;;;5023942;28;20013;-74
2022/01/14 07:51:53;;;;;;;12.73;6.65;;;-2.00;99.90;;;;;;5028576;28;20471;-74
2022/01/14 07:54:19;;;;;;;11.88;6.40;;;-2.10;99.90;;;;;;5029201;28;20387;-75
2022/01/14 07:56:47;;;;;;;9.98;5.85;;;-2.20;99.90;;;;;;5027686;28;20037;-75
2022/01/14 07:59:16;;;;;;;13.65;6.57;;;-2.40;99.90;;;;;;5026412;28;20045;-75
2022/01/14 08:01:43;;;;;;;12.38;6.95;;;-2.10;99.90;;;;;;5028097;28;20034;-75
2022/01/14 08:04:10;;;;;;;14.15;6.90;;;-2.20;99.90;;;;;;5027049;28;20030;-74
2022/01/14 08:06:43;;;;;;;11.25;6.10;;;-2.00;99.90;;;;;;5029438;28;20028;-74
2022/01/14 08:09:09;;;;;;;13.30;6.03;;;-2.20;99.90;;;;;;5026836;28;20030;-74
2022/01/14 08:11:35;;;;;;;10.93;5.72;;;-1.90;99.90;;;;;;5027036;28;20556;-74
2022/01/14 08:14:01;;;;;;;11.52;6.30;;;-2.10;99.90;;;;;;5027806;28;20048;-74
2022/01/14 08:16:26;;;;;;;11.38;5.97;;;-2.20;99.90;;;;;;5025936;28;20432;-74
2022/01/14 08:18:52;;;;;;;12.07;6.35;;;-2.30;99.90;;;;;;5028684;28;20022;-75
2022/01/14 08:21:18;;;;;;;14.73;8.25;;;-2.40;99.90;;;;;;5027134;28;20021;-75
2022/01/14 08:23:43;;;;;;;11.43;6.10;;;-2.50;99.90;;;;;;5028089;28;20025;-74
2022/01/14 08:26:09;;;;;;;9.95;5.70;;;-2.00;99.90;;;;;;5029122;28;20025;-75
2022/01/14 08:28:35;;;;;;;12.20;5.93;;;-1.70;99.90;;;;;;5019208;28;20085;-75
2022/01/14 08:31:00;;;;;;;19.67;9.35;;;-1.50;99.90;;;;;;5031117;28;20483;-75
2022/01/14 08:33:26;;;;;;;14.07;8.38;;;-2.00;99.90;;;;;;5031948;28;20025;-75
2022/01/14 08:35:52;;;;;;;15.23;9.23;;;-2.00;99.90;;;;;;5030810;28;20535;-75
2022/01/14 08:38:18;;;;;;;14.45;8.55;;;-2.10;99.90;;;;;;5031017;28;20032;-74
2022/01/14 08:40:44;;;;;;;13.85;7.85;;;-2.00;99.90;;;;;;5030639;28;20102;-75
2022/01/14 08:43:10;;;;;;;11.45;7.43;;;-2.10;99.90;;;;;;5030652;28;21206;-75
2022/01/14 08:45:37;;;;;;;14.40;6.97;;;-1.80;99.90;;;;;;5031053;28;20029;-75
2022/01/14 08:48:03;;;;;;;12.15;7.22;;;-1.80;99.90;;;;;;5030349;28;20026;-75
2022/01/14 08:50:35;;;;;;;12.07;7.07;;;-1.90;99.90;;;;;;5031148;28;20388;-75
2022/01/14 08:53:01;;;;;;;12.70;6.57;;;-1.90;99.90;;;;;;5021400;28;20616;-75
2022/01/14 08:55:27;;;;;;;12.05;6.07;;;-2.00;99.90;;;;;;5029258;28;20029;-74
2022/01/14 08:57:53;;;;;;;13.52;6.22;;;-1.90;99.90;;;;;;5032187;28;20099;-74
2022/01/14 09:00:21;;;;;;;11.07;6.07;;;-1.80;99.90;;;;;;5032292;28;20522;-74
2022/01/14 09:02:47;;;;;;;11.85;6.43;;;-1.80;99.90;;;;;;5030783;28;20080;-74
2022/01/14 09:05:13;;;;;;;12.75;5.88;;;-1.70;99.90;;;;;;5029683;28;20045;-74
2022/01/14 09:07:40;;;;;;;10.10;5.30;;;-1.40;99.90;;;;;;5029626;28;20037;-74
2022/01/14 09:10:07;;;;;;;11.45;5.82;;;-1.40;99.90;;;;;;5030691;28;20026;-74
2022/01/14 09:12:34;;;;;;;8.75;5.43;;;-1.20;99.90;;;;;;5032437;28;20033;-74
2022/01/14 09:15:00;;;;;;;11.77;5.97;;;-1.20;99.90;;;;;;5029179;28;20026;-74
2022/01/14 09:17:29;;;;;;;10.65;6.55;;;-1.20;99.90;;;;;;5030237;28;20212;-74
2022/01/14 09:19:55;;;;;;;12.82;6.80;;;-1.00;99.90;;;;;;5029427;28;20056;-74
2022/01/14 09:22:22;;;;;;;14.35;6.75;;;-1.20;99.90;;;;;;5031055;28;20033;-75
2022/01/14 09:24:48;;;;;;;14.35;7.07;;;-0.80;99.90;;;;;;5031250;28;20029;-74
2022/01/14 09:27:15;;;;;;;12.02;6.05;;;-0.90;99.90;;;;;;5030472;28;20494;-74
2022/01/14 09:29:42;;;;;;;14.63;7.03;;;-1.00;99.90;;;;;;5029364;28;20029;-74
2022/01/14 09:32:09;;;;;;;13.73;6.88;;;-0.90;99.90;;;;;;5030452;28;20017;-74
2022/01/14 09:34:35;;;;;;;15.40;7.45;;;-0.80;99.90;;;;;;5030180;28;20022;-74
2022/01/14 09:37:02;;;;;;;14.20;7.90;;;-0.90;99.90;;;;;;5029167;28;20091;-75
2022/01/14 09:39:28;;;;;;;16.65;7.97;;;-1.00;99.90;;;;;;5031715;28;20076;-75
2022/01/14 09:41:53;;;;;;;20.00;9.15;;;-1.00;99.90;;;;;;5028822;28;20029;-75
2022/01/14 09:44:20;;;;;;;19.20;9.45;;;-0.90;99.90;;;;;;5029837;28;20090;-75
2022/01/14 09:46:50;;;;;;;16.08;9.30;;;-0.70;99.90;;;;;;5028908;28;20032;-75
2022/01/14 09:49:16;;;;;;;18.15;9.50;;;-0.80;99.90;;;;;;5030352;28;20033;-75
2022/01/14 09:51:42;;;;;;;18.92;11.10;;;-0.80;99.90;;;;;;5032187;28;20021;-75
2022/01/14 09:54:10;;;;;;;20.25;10.70;;;-0.80;99.90;;;;;;5028622;28;20115;-75
2022/01/14 09:56:37;;;;;;;26.48;11.93;;;-0.90;99.90;;;;;;5029461;28;20022;-75
2022/01/14 09:59:04;;;;;;;25.27;13.32;;;-0.90;99.90;;;;;;5029778;28;20104;-75
2022/01/14 10:01:37;;;;;;;31.27;15.20;;;-0.80;99.90;;;;;;5029362;28;20032;-75
2022/01/14 10:04:03;;;;;;;32.42;16.35;;;-0.80;99.90;;;;;;5030116;28;20028;-75
2022/01/14 10:06:45;;;;;;;28.48;15.70;;;-0.50;99.90;;;;;;5029960;28;20021;-75
2022/01/14 10:09:17;;;;;;;30.17;14.88;;;-0.60;99.90;;;;;;5029599;28;20025;-75
2022/01/14 10:11:57;;;;;;;30.15;14.43;;;-0.30;99.90;;;;;;5029590;28;20033;-76
2022/01/14 10:14:23;;;;;;;27.88;14.73;;;0.00;99.90;;;;;;5022394;28;20125;-75
2022/01/14 10:16:54;;;;;;;30.52;15.52;;;0.10;99.90;;;;;;5026661;28;20100;-75
2022/01/14 10:19:22;;;;;;;28.60;13.95;;;-0.10;99.90;;;;;;5017782;28;20030;-75
2022/01/14 10:21:48;;;;;;;28.02;14.75;;;0.00;99.90;;;;;;5030425;28;20034;-75
2022/01/14 10:24:14;;;;;;;31.38;15.30;;;0.10;99.90;;;;;;5027926;28;20033;-75
2022/01/14 10:26:57;;;;;;;32.13;16.33;;;0.20;99.90;;;;;;5026798;28;20030;-75
2022/01/14 10:29:30;;;;;;;30.65;16.52;;;0.30;99.90;;;;;;5028980;28;20029;-75
2022/01/14 10:31:56;;;;;;;31.27;15.57;;;0.30;99.90;;;;;;5027479;28;20021;-75
2022/01/14 10:34:22;;;;;;;35.28;16.45;;;0.10;99.90;;;;;;5029041;28;20254;-76
2022/01/14 10:36:50;;;;;;;29.83;15.45;;;0.00;99.90;;;;;;5028889;28;20022;-76
2022/01/14 10:39:19;;;;;;;30.83;15.52;;;0.20;99.90;;;;;;5029076;28;20116;-76
2022/01/14 10:41:44;;;;;;;27.33;14.82;;;0.40;99.90;;;;;;5024409;28;20053;-76
2022/01/14 10:44:34;;;;;;;36.90;17.45;;;0.60;99.90;;;;;;5028853;28;20454;-77
2022/01/14 10:47:11;;;;;;;34.97;17.48;;;0.50;99.90;;;;;;5022363;28;20053;-77
2022/01/14 10:49:40;;;;;;;30.90;14.35;;;0.90;99.90;;;;;;5028530;28;20079;-77
2022/01/14 10:52:16;;;;;;;32.88;16.27;;;0.90;99.90;;;;;;5028188;28;20064;-78
2022/01/14 10:54:51;;;;;;;33.55;16.85;;;0.70;99.90;;;;;;5028730;28;20060;-78
2022/01/14 10:57:24;;;;;;;36.50;18.27;;;0.80;99.90;;;;;;5028675;28;20029;-79
2022/01/14 10:59:55;;;;;;;37.10;18.85;;;0.90;99.90;;;;;;5043132;28;20133;-79
2022/01/14 11:02:31;;;;;;;46.00;21.83;;;0.80;99.90;;;;;;5028991;28;20022;-79
2022/01/14 11:05:13;;;;;;;43.95;21.63;;;0.60;99.90;;;;;;5028750;28;20029;-79
2022/01/14 11:07:41;;;;;;;45.42;21.80;;;0.50;99.90;;;;;;5028211;28;20025;-79
2022/01/14 11:10:20;;;;;;;43.33;21.42;;;0.70;99.90;;;;;;5028348;28;20036;-79
2022/01/14 11:12:47;;;;;;;40.60;20.88;;;0.90;99.90;;;;;;5028603;28;20380;-79
2022/01/14 11:15:14;;;;;;;43.42;21.27;;;0.80;99.90;;;;;;5028232;28;20029;-79
2022/01/14 11:17:42;;;;;;;46.58;23.70;;;0.80;99.90;;;;;;5019830;28;20033;-79
2022/01/14 11:20:10;;;;;;;48.75;24.13;;;1.10;99.90;;;;;;5027992;28;20025;-78
2022/01/14 11:25:20;;;;;;;47.03;24.05;;;1.20;99.90;;;;;;5028597;28;20068;-80
2022/01/14 11:27:51;;;;;;;39.20;21.42;;;1.30;99.90;;;;;;5024201;28;20029;-80
2022/01/14 11:30:16;;;;;;;34.13;20.00;;;1.40;99.90;;;;;;5026887;28;20514;-79
2022/01/14 11:32:56;;;;;;;34.92;19.77;;;1.50;99.90;;;;;;5027322;28;20037;-80
2022/01/14 11:35:24;;;;;;;35.55;18.52;;;1.50;99.90;;;;;;5028079;28;20052;-80
2022/01/14 11:37:51;;;;;;;35.95;18.83;;;1.50;99.90;;;;;;5027854;28;20553;-80
2022/01/14 11:40:18;;;;;;;33.65;18.65;;;1.70;99.90;;;;;;5026437;28;20056;-80
2022/01/14 11:43:01;;;;;;;37.53;17.15;;;1.70;99.90;;;;;;5028887;28;20025;-80
2022/01/14 11:45:42;;;;;;;37.63;17.77;;;1.80;99.90;;;;;;5030855;28;20101;-80
2022/01/14 11:48:08;;;;;;;31.80;18.27;;;1.90;99.90;;;;;;5010716;28;20558;-80
2022/01/14 11:50:37;;;;;;;34.75;17.55;;;2.00;99.90;;;;;;5001356;28;20296;-80
2022/01/14 11:53:02;;;;;;;33.72;17.83;;;2.10;99.90;;;;;;4998847;28;20036;-80
2022/01/14 11:55:31;;;;;;;38.08;18.13;;;2.10;99.90;;;;;;4988391;28;20029;-81
2022/01/14 11:58:04;;;;;;;30.75;15.25;;;2.10;99.90;;;;;;5000119;28;20029;-81
2022/01/14 12:00:41;;;;;;;33.83;18.15;;;2.10;99.90;;;;;;4998093;28;20060;-81
2022/01/14 12:03:07;;;;;;;34.42;17.75;;;2.10;99.90;;;;;;5000125;28;20082;-83
2022/01/14 12:05:33;;;;;;;31.45;16.10;;;2.30;99.90;;;;;;4995108;28;20042;-81
2022/01/14 12:08:05;;;;;;;30.05;16.70;;;2.50;99.90;;;;;;4993690;28;20128;-81
2022/01/14 12:10:43;;;;;;;31.95;16.15;;;2.60;99.90;;;;;;4995066;28;20490;-82
2022/01/14 12:16:36;;;;;;;34.80;18.23;;;2.70;99.90;;;;;;4995420;28;20030;-82
2022/01/14 12:19:02;;;;;;;34.90;17.97;;;2.70;99.90;;;;;;4990382;28;20030;-82
2022/01/14 12:21:37;;;;;;;30.40;15.52;;;2.50;99.90;;;;;;4997335;28;20096;-82
2022/01/14 12:24:15;;;;;;;31.55;16.15;;;2.60;99.90;;;;;;4999904;28;20085;-82
2022/01/14 12:27:03;;;;;;;28.00;14.82;;;2.80;99.90;;;;;;4991167;28;20049;-82
2022/01/14 12:29:40;;;;;;;29.52;15.50;;;2.90;99.90;;;;;;4995754;28;20029;-82
2022/01/14 12:32:11;;;;;;;29.75;16.63;;;3.10;99.90;;;;;;4996599;28;20034;-82
2022/01/14 12:34:48;;;;;;;32.10;16.57;;;2.90;99.90;;;;;;5001760;28;20022;-82
2022/01/14 12:37:23;;;;;;;36.08;16.23;;;3.10;99.90;;;;;;4991072;28;20499;-82
2022/01/14 12:39:50;;;;;;;31.70;16.45;;;3.10;99.90;;;;;;4994649;28;20082;-82
2022/01/14 12:42:19;;;;;;;28.67;14.85;;;3.00;99.90;;;;;;4992318;28;20030;-82
2022/01/14 12:44:47;;;;;;;29.77;14.90;;;3.10;99.90;;;;;;4999850;28;20057;-83
2022/01/14 12:47:20;;;;;;;32.25;15.85;;;3.30;99.90;;;;;;4996874;28;20501;-83
2022/01/14 12:49:47;;;;;;;30.20;15.48;;;3.40;99.90;;;;;;4992368;28;20117;-82
2022/01/14 12:52:16;;;;;;;31.73;14.68;;;3.30;99.90;;;;;;4999940;28;20045;-82
2022/01/14 12:54:46;;;;;;;25.17;14.43;;;3.30;99.90;;;;;;4989408;28;20093;-84
2022/01/14 12:57:22;;;;;;;29.40;15.80;;;3.70;99.90;;;;;;5002903;28;20022;-81
2022/01/14 12:59:50;;;;;;;24.33;14.20;;;3.50;99.90;;;;;;4996489;28;20121;-81
2022/01/14 13:02:18;;;;;;;27.80;15.85;;;3.40;99.90;;;;;;4997939;28;20022;-82
2022/01/14 13:04:44;;;;;;;31.42;16.33;;;3.90;99.90;;;;;;4994535;28;20510;-83
2022/01/14 13:07:11;;;;;;;28.33;14.93;;;3.90;99.90;;;;;;4993913;28;20054;-81
2022/01/14 13:09:40;;;;;;;31.33;16.42;;;3.70;99.90;;;;;;5003068;28;20109;-81
2022/01/14 13:12:12;;;;;;;28.95;14.75;;;4.00;99.90;;;;;;4995370;28;20034;-80